createdAt,value
2022-11-18T00:01:10.750Z,13.80
2022-11-18T00:03:38.945Z,13.70
2022-11-18T00:06:07.267Z,13.80
2022-11-18T00:08:34.761Z,13.80
2022-11-18T00:11:09.673Z,13.80
2022-11-18T00:13:56.643Z,13.70
2022-11-18T00:16:24.224Z,13.80
2022-11-18T00:18:51.682Z,13.80
2022-11-18T00:21:18.702Z,13.70
2022-11-18T00:23:45.734Z,13.80
2022-11-18T00:26:14.842Z,13.70
2022-11-18T00:28:42.450Z,13.70
2022-11-18T00:31:11.913Z,13.70
2022-11-18T00:33:39.567Z,13.70
2022-11-18T00:36:09.291Z,13.80
2022-11-18T00:38:36.573Z,13.70
2022-11-18T00:41:09.689Z,13.80
2022-11-18T00:43:37.236Z,13.80
2022-11-18T00:46:06.204Z,13.80
2022-11-18T00:48:33.176Z,13.80
2022-11-18T00:51:16.869Z,13.80
2022-11-18T00:53:44.987Z,13.80
2022-11-18T00:56:12.069Z,13.80
2022-11-18T00:58:39.072Z,13.80
2022-11-18T01:01:06.261Z,13.80
2022-11-18T01:03:33.638Z,13.80
2022-11-18T01:06:00.617Z,13.80
2022-11-18T01:08:27.660Z,13.80
2022-11-18T01:10:54.825Z,13.80
2022-11-18T01:13:24.167Z,13.80
2022-11-18T01:15:54.456Z,13.90
2022-11-18T01:18:27.175Z,13.80
2022-11-18T01:20:54.160Z,13.80
2022-11-18T01:23:21.480Z,13.80
2022-11-18T01:25:49.881Z,13.80
2022-11-18T01:28:23.215Z,13.80
2022-11-18T01:30:51.466Z,13.80
2022-11-18T01:33:18.427Z,13.80
2022-11-18T01:35:45.412Z,13.80
2022-11-18T01:38:14.247Z,13.80
2022-11-18T01:40:41.998Z,13.80
2022-11-18T01:43:18.856Z,13.80
2022-11-18T01:45:48.300Z,13.90
2022-11-18T01:48:30.445Z,13.80
2022-11-18T01:51:09.201Z,13.90
2022-11-18T01:53:44.511Z,13.80
2022-11-18T01:56:16.987Z,13.80
2022-11-18T01:58:52.212Z,13.90
2022-11-18T02:01:19.708Z,13.80
2022-11-18T02:03:48.453Z,13.90
2022-11-18T02:06:16.352Z,13.90
2022-11-18T02:08:43.964Z,13.90
2022-11-18T02:11:31.725Z,13.90
2022-11-18T02:14:00.758Z,13.80
2022-11-18T02:16:43.089Z,13.80
2022-11-18T02:19:21.781Z,13.80
2022-11-18T02:22:06.895Z,13.80
2022-11-18T02:24:56.499Z,13.80
2022-11-18T02:27:34.957Z,13.80
2022-11-18T02:30:12.227Z,13.80
2022-11-18T02:32:42.460Z,13.70
2022-11-18T02:35:29.782Z,13.70
2022-11-18T02:37:59.839Z,13.70
2022-11-18T02:40:34.191Z,13.70
2022-11-18T02:43:13.571Z,13.80
2022-11-18T02:45:45.601Z,13.70
2022-11-18T02:48:14.539Z,13.80
2022-11-18T02:50:44.333Z,13.80
2022-11-18T02:53:15.892Z,13.80
2022-11-18T02:55:44.336Z,13.80
2022-11-18T02:58:12.544Z,13.80
2022-11-18T03:00:39.515Z,13.80
2022-11-18T03:03:28.861Z,13.80
2022-11-18T03:06:09.903Z,13.80
2022-11-18T03:08:49.653Z,13.80
2022-11-18T03:11:21.564Z,13.80
2022-11-18T03:14:19.024Z,13.80
2022-11-18T03:16:56.617Z,13.80
2022-11-18T03:19:50.972Z,13.80
2022-11-18T03:22:31.333Z,13.80
2022-11-18T03:25:07.282Z,13.80
2022-11-18T03:27:42.024Z,13.80
2022-11-18T03:30:12.757Z,13.70
2022-11-18T03:32:43.824Z,13.80
2022-11-18T03:35:16.028Z,13.70
2022-11-18T03:37:44.514Z,13.70
2022-11-18T03:40:24.848Z,13.70
2022-11-18T03:43:02.485Z,13.70
2022-11-18T03:45:37.345Z,13.70
2022-11-18T03:48:19.557Z,13.70
2022-11-18T03:50:54.986Z,13.70
2022-11-18T03:53:25.916Z,13.70
2022-11-18T03:56:00.529Z,13.70
2022-11-18T03:58:33.332Z,13.70
2022-11-18T04:01:08.276Z,13.80
2022-11-18T04:03:35.616Z,13.80
2022-11-18T04:06:16.090Z,13.80
2022-11-18T04:08:46.193Z,13.70
2022-11-18T04:11:42.255Z,13.70
2022-11-18T04:14:10.806Z,13.70
2022-11-18T04:16:45.242Z,13.70
2022-11-18T04:19:12.295Z,13.70
2022-11-18T04:21:39.332Z,13.70
2022-11-18T04:24:06.523Z,13.70
2022-11-18T04:26:33.502Z,13.70
2022-11-18T04:29:00.717Z,13.70
2022-11-18T04:31:27.785Z,13.70
2022-11-18T04:33:54.974Z,13.70
2022-11-18T04:36:22.074Z,13.70
2022-11-18T04:38:49.069Z,13.70
2022-11-18T04:41:16.016Z,13.70
2022-11-18T04:43:42.972Z,13.70
2022-11-18T04:46:09.948Z,13.80
2022-11-18T04:48:37.039Z,13.80
2022-11-18T04:51:05.173Z,13.80
2022-11-18T04:53:32.508Z,13.80
2022-11-18T04:56:07.312Z,13.80
2022-11-18T04:58:34.269Z,13.80
2022-11-18T05:01:01.292Z,13.80
2022-11-18T05:03:28.316Z,13.70
2022-11-18T05:05:55.234Z,13.70
2022-11-18T05:08:22.234Z,13.60
2022-11-18T05:10:49.309Z,13.60
2022-11-18T05:13:16.341Z,13.60
2022-11-18T05:15:43.289Z,13.60
2022-11-18T05:18:13.032Z,13.50
2022-11-18T05:20:41.757Z,13.50
2022-11-18T05:23:08.900Z,13.50
2022-11-18T05:25:36.122Z,13.50
2022-11-18T05:28:03.095Z,13.50
2022-11-18T05:30:30.084Z,13.50
2022-11-18T05:32:56.961Z,13.50
2022-11-18T05:35:23.900Z,13.50
2022-11-18T05:37:50.968Z,13.40
2022-11-18T05:40:18.201Z,13.40
2022-11-18T05:43:03.915Z,13.40
2022-11-18T05:45:30.968Z,13.40
2022-11-18T05:48:01.209Z,13.50
2022-11-18T05:50:28.264Z,13.40
2022-11-18T05:52:56.119Z,13.40
2022-11-18T05:55:27.391Z,13.50
2022-11-18T05:57:54.313Z,13.50
2022-11-18T06:00:21.438Z,13.50
2022-11-18T06:02:51.682Z,13.50
2022-11-18T06:05:21.005Z,13.50
2022-11-18T06:07:48.071Z,13.50
2022-11-18T06:10:36.672Z,13.50
2022-11-18T06:13:07.318Z,13.50
2022-11-18T06:15:40.809Z,13.50
2022-11-18T06:18:18.705Z,13.50
2022-11-18T06:20:46.399Z,13.50
2022-11-18T06:23:13.969Z,13.50
2022-11-18T06:25:41.515Z,13.50
2022-11-18T06:28:10.905Z,13.50
2022-11-18T06:30:38.800Z,13.50
2022-11-18T06:33:05.811Z,13.50
2022-11-18T06:35:33.016Z,13.50
2022-11-18T06:38:00.372Z,13.50
2022-11-18T06:40:30.439Z,13.50
2022-11-18T06:43:30.361Z,13.50
2022-11-18T06:46:19.939Z,13.50
2022-11-18T06:48:47.312Z,13.50
2022-11-18T06:51:14.577Z,13.50
2022-11-18T06:53:41.910Z,13.50
2022-11-18T06:56:12.432Z,13.50
2022-11-18T06:58:40.268Z,13.50
2022-11-18T07:01:28.213Z,13.50
2022-11-18T07:03:57.537Z,13.50
2022-11-18T07:06:26.846Z,13.50
2022-11-18T07:08:54.140Z,13.50
2022-11-18T07:11:23.916Z,13.50
2022-11-18T07:13:51.506Z,13.40
2022-11-18T07:16:23.571Z,13.40
2022-11-18T07:18:51.821Z,13.40
2022-11-18T07:21:21.994Z,13.30
2022-11-18T07:23:49.094Z,13.30
2022-11-18T07:26:17.175Z,13.30
2022-11-18T07:28:44.216Z,13.30
2022-11-18T07:31:15.994Z,13.20
2022-11-18T07:33:44.527Z,13.30
2022-11-18T07:36:20.213Z,13.30
2022-11-18T07:38:47.843Z,13.30
2022-11-18T07:41:19.711Z,13.30
2022-11-18T07:43:47.997Z,13.40
2022-11-18T07:46:18.329Z,13.40
2022-11-18T07:48:47.160Z,13.50
2022-11-18T07:51:16.379Z,13.50
2022-11-18T07:53:44.122Z,13.50
2022-11-18T07:56:11.818Z,13.50
2022-11-18T07:58:39.150Z,13.40
2022-11-18T08:01:20.049Z,13.40
2022-11-18T08:03:47.528Z,13.40
2022-11-18T08:06:17.155Z,13.40
2022-11-18T08:08:44.832Z,13.30
2022-11-18T08:11:20.399Z,13.30
2022-11-18T08:13:49.154Z,13.30
2022-11-18T08:16:18.831Z,13.30
2022-11-18T08:18:46.094Z,13.30
2022-11-18T08:21:14.640Z,13.30
2022-11-18T08:23:42.836Z,13.30
2022-11-18T08:26:13.708Z,13.40
2022-11-18T08:28:44.933Z,13.30
2022-11-18T08:31:14.406Z,13.40
2022-11-18T08:33:41.822Z,13.40
2022-11-18T08:36:22.637Z,13.40
2022-11-18T08:38:49.897Z,13.40
2022-11-18T08:41:25.757Z,13.40
2022-11-18T08:43:52.787Z,13.30
2022-11-18T08:46:20.012Z,13.30
2022-11-18T08:48:46.957Z,13.30
2022-11-18T08:51:14.499Z,13.30
2022-11-18T08:53:42.066Z,13.30
2022-11-18T08:56:15.535Z,13.40
2022-11-18T08:58:43.554Z,13.40
2022-11-18T09:01:10.929Z,13.40
2022-11-18T09:03:38.211Z,13.50
2022-11-18T09:06:11.100Z,13.50
2022-11-18T09:08:38.936Z,13.50
2022-11-18T09:11:14.357Z,13.50
2022-11-18T09:16:31.042Z,13.60
2022-11-18T09:19:04.818Z,13.60
2022-11-18T09:21:41.105Z,13.60
2022-11-18T09:24:08.874Z,13.60
2022-11-18T09:26:35.909Z,13.50
2022-11-18T09:29:02.813Z,13.50
2022-11-18T09:31:29.839Z,13.40
2022-11-18T09:34:00.371Z,13.40
2022-11-18T09:36:27.948Z,13.40
2022-11-18T09:38:54.982Z,13.40
2022-11-18T09:41:47.240Z,13.40
2022-11-18T09:44:17.249Z,13.40
2022-11-18T09:47:17.552Z,13.40
2022-11-18T09:49:45.519Z,13.50
2022-11-18T09:52:20.003Z,13.50
2022-11-18T09:54:47.588Z,13.50
2022-11-18T09:57:19.126Z,13.60
2022-11-18T09:59:46.648Z,13.60
2022-11-18T10:02:13.660Z,13.60
2022-11-18T10:04:40.795Z,13.70
2022-11-18T10:07:18.124Z,13.70
2022-11-18T10:09:48.301Z,13.70
2022-11-18T10:13:08.045Z,13.80
2022-11-18T10:15:53.784Z,13.80
2022-11-18T10:19:01.211Z,13.90
2022-11-18T10:21:44.734Z,13.90
2022-11-18T10:24:18.907Z,13.90
2022-11-18T10:26:46.238Z,14.00
2022-11-18T10:29:13.316Z,14.00
2022-11-18T10:31:56.134Z,14.00
2022-11-18T10:34:26.343Z,14.10
2022-11-18T10:37:05.376Z,14.10
2022-11-18T10:39:32.953Z,14.10
2022-11-18T10:42:07.606Z,14.10
2022-11-18T10:44:42.708Z,14.20
2022-11-18T10:47:23.019Z,14.20
2022-11-18T10:49:51.285Z,14.20
2022-11-18T10:52:18.277Z,14.30
2022-11-18T10:54:45.360Z,14.30
2022-11-18T10:57:24.198Z,14.30
2022-11-18T10:59:55.151Z,14.30
2022-11-18T11:02:31.656Z,14.40
2022-11-18T11:05:03.086Z,14.40
2022-11-18T11:07:36.012Z,14.40
2022-11-18T11:10:06.152Z,14.40
2022-11-18T11:12:46.956Z,14.50
2022-11-18T11:15:19.456Z,14.50
2022-11-18T11:18:13.818Z,14.50
2022-11-18T11:20:41.243Z,14.50
2022-11-18T11:23:10.732Z,14.60
2022-11-18T11:28:40.580Z,14.60
2022-11-18T11:31:26.290Z,14.60
2022-11-18T11:33:59.310Z,14.70
2022-11-18T11:36:50.364Z,14.70
2022-11-18T11:39:54.761Z,14.80
2022-11-18T11:42:26.880Z,14.80
2022-11-18T11:44:56.905Z,14.80
2022-11-18T11:47:49.494Z,14.80
2022-11-18T11:50:30.016Z,14.80
2022-11-18T11:53:15.604Z,14.90
2022-11-18T11:56:22.235Z,15.00
2022-11-18T11:59:06.910Z,15.00
2022-11-18T12:02:06.037Z,15.00
2022-11-18T12:04:38.926Z,15.00
2022-11-18T12:07:12.741Z,15.00
2022-11-18T12:09:52.264Z,15.10
2022-11-18T12:12:34.568Z,15.10
2022-11-18T12:15:15.372Z,15.10
2022-11-18T12:17:54.311Z,15.10
2022-11-18T12:20:39.887Z,15.20
2022-11-18T12:23:18.505Z,15.20
2022-11-18T12:25:48.407Z,15.20
2022-11-18T12:28:28.963Z,15.20
2022-11-18T12:31:32.390Z,15.20
2022-11-18T12:34:06.000Z,15.20
2022-11-18T12:36:39.395Z,15.30
2022-11-18T12:39:24.623Z,15.30
2022-11-18T12:42:23.480Z,15.30
2022-11-18T12:44:52.445Z,15.30
2022-11-18T12:47:43.188Z,15.40
2022-11-18T12:50:12.990Z,15.50
2022-11-18T12:52:40.001Z,15.50
2022-11-18T12:55:38.035Z,15.60
2022-11-18T12:58:22.364Z,15.60
2022-11-18T13:00:52.646Z,15.70
2022-11-18T13:03:29.052Z,15.80
2022-11-18T13:06:02.604Z,15.80
2022-11-18T13:08:30.316Z,15.80
2022-11-18T13:11:35.701Z,15.90
2022-11-18T13:14:24.046Z,16.00
2022-11-18T13:17:10.509Z,16.20
2022-11-18T13:19:37.508Z,16.40
2022-11-18T13:22:35.007Z,16.50
2022-11-18T13:25:01.985Z,16.60
2022-11-18T13:27:52.408Z,16.70
2022-11-18T13:30:19.456Z,16.70
2022-11-18T13:32:48.179Z,16.80
2022-11-18T13:35:21.535Z,16.80
2022-11-18T13:37:57.669Z,16.80
2022-11-18T13:40:40.164Z,16.80
2022-11-18T13:43:12.035Z,16.90
2022-11-18T13:45:40.089Z,16.90
2022-11-18T13:48:13.588Z,17.00
2022-11-18T13:50:42.135Z,17.00
2022-11-18T13:53:30.348Z,17.10
2022-11-18T13:56:34.451Z,17.00
2022-11-18T13:59:18.421Z,17.10
2022-11-18T14:01:47.720Z,17.20
2022-11-18T14:04:27.724Z,17.30
2022-11-18T14:07:23.682Z,17.30
2022-11-18T14:10:01.132Z,17.40
2022-11-18T14:12:33.145Z,17.40
2022-11-18T14:15:33.039Z,17.40
2022-11-18T14:18:01.866Z,17.40
2022-11-18T14:20:30.917Z,17.50
2022-11-18T14:23:00.877Z,17.50
2022-11-18T14:25:33.413Z,17.50
2022-11-18T14:28:30.203Z,17.50
2022-11-18T14:31:04.484Z,17.60
2022-11-18T14:33:33.030Z,17.80
2022-11-18T14:36:10.776Z,18.00
2022-11-18T14:39:11.372Z,18.30
2022-11-18T14:41:47.112Z,18.60
2022-11-18T14:44:14.875Z,19.00
2022-11-18T14:46:44.691Z,19.30
2022-11-18T14:49:22.087Z,19.50
2022-11-18T14:51:51.095Z,19.70
2022-11-18T14:54:25.917Z,19.70
2022-11-18T14:56:55.101Z,19.80
2022-11-18T14:59:22.304Z,19.90
2022-11-18T15:01:49.374Z,20.00
2022-11-18T15:04:21.019Z,20.00
2022-11-18T15:06:48.581Z,19.90
2022-11-18T15:09:15.596Z,19.80
2022-11-18T15:11:42.817Z,19.50
2022-11-18T15:14:09.752Z,19.20
2022-11-18T15:16:36.814Z,18.90
2022-11-18T15:19:06.106Z,18.60
2022-11-18T15:21:33.490Z,18.30
2022-11-18T15:24:00.699Z,18.10
2022-11-18T15:26:35.823Z,17.80
2022-11-18T15:29:03.161Z,17.70
2022-11-18T15:31:30.226Z,17.50
2022-11-18T15:34:00.821Z,17.40
2022-11-18T15:36:30.604Z,17.20
2022-11-18T15:38:57.542Z,17.00
2022-11-18T15:41:26.599Z,17.00
2022-11-18T15:43:55.041Z,16.90
2022-11-18T15:46:24.139Z,16.70
2022-11-18T15:48:55.682Z,16.70
2022-11-18T15:51:23.732Z,16.60
2022-11-18T15:53:51.043Z,16.50
2022-11-18T15:56:21.213Z,16.40
2022-11-18T15:58:58.124Z,16.40
2022-11-18T16:01:28.003Z,16.30
2022-11-18T16:03:55.470Z,16.30
2022-11-18T16:06:23.024Z,16.20
2022-11-18T16:08:54.420Z,16.20
2022-11-18T16:11:43.211Z,16.10
2022-11-18T16:14:12.157Z,16.00
2022-11-18T16:16:40.624Z,15.90
2022-11-18T16:19:11.063Z,15.90
2022-11-18T16:21:40.841Z,15.80
2022-11-18T16:24:11.107Z,15.80
2022-11-18T16:26:38.622Z,15.70
2022-11-18T16:29:06.844Z,15.70
2022-11-18T16:31:40.848Z,15.70
2022-11-18T16:34:10.780Z,15.60
2022-11-18T16:36:38.685Z,15.60
2022-11-18T16:39:14.173Z,15.60
2022-11-18T16:41:42.277Z,15.50
2022-11-18T16:44:11.181Z,15.50
2022-11-18T16:46:40.437Z,15.50
2022-11-18T16:49:11.389Z,15.40
2022-11-18T16:51:41.109Z,15.50
2022-11-18T16:54:08.732Z,15.40
2022-11-18T16:56:36.506Z,15.40
2022-11-18T16:59:06.418Z,15.40
2022-11-18T17:01:34.066Z,15.40
2022-11-18T17:04:01.716Z,15.40
2022-11-18T17:06:30.854Z,15.30
2022-11-18T17:09:01.573Z,15.30
2022-11-18T17:11:28.570Z,15.20
2022-11-18T17:13:58.234Z,15.20
2022-11-18T17:16:26.849Z,15.20
2022-11-18T17:18:55.898Z,15.20
2022-11-18T17:21:23.970Z,15.10
2022-11-18T17:23:51.386Z,15.10
2022-11-18T17:26:21.364Z,15.00
2022-11-18T17:28:48.595Z,14.90
2022-11-18T17:31:18.368Z,14.80
2022-11-18T17:33:46.277Z,14.80
2022-11-18T17:36:18.823Z,14.80
2022-11-18T17:38:47.653Z,14.80
2022-11-18T17:41:36.064Z,14.80
2022-11-18T17:44:05.629Z,14.80
2022-11-18T17:46:37.749Z,14.80
2022-11-18T17:49:10.079Z,14.70
2022-11-18T17:51:37.163Z,14.80
2022-11-18T17:54:04.224Z,14.70
2022-11-18T17:56:31.303Z,14.70
2022-11-18T17:58:58.379Z,14.70
2022-11-18T18:01:25.601Z,14.60
2022-11-18T18:03:52.784Z,14.60
2022-11-18T18:06:23.247Z,14.60
2022-11-18T18:08:54.466Z,14.50
2022-11-18T18:11:21.534Z,14.50
2022-11-18T18:14:06.938Z,14.50
2022-11-18T18:16:34.180Z,14.50
2022-11-18T18:19:02.692Z,14.50
2022-11-18T18:21:29.745Z,14.40
2022-11-18T18:23:56.937Z,14.40
2022-11-18T18:26:29.673Z,14.40
2022-11-18T18:28:59.283Z,14.40
2022-11-18T18:31:26.777Z,14.40
2022-11-18T18:33:53.859Z,14.40
2022-11-18T18:36:24.933Z,14.30
2022-11-18T18:38:52.614Z,14.30
2022-11-18T18:41:21.950Z,14.30
2022-11-18T18:43:49.668Z,14.30
2022-11-18T18:46:32.161Z,14.30
2022-11-18T18:49:07.034Z,14.30
2022-11-18T18:51:39.669Z,14.30
2022-11-18T18:54:09.738Z,14.30
2022-11-18T18:56:38.521Z,14.30
2022-11-18T18:59:05.907Z,14.20
2022-11-18T19:01:33.794Z,14.20
2022-11-18T19:04:04.200Z,14.20
2022-11-18T19:09:21.576Z,14.20
2022-11-18T19:12:07.549Z,14.20
2022-11-18T19:14:35.602Z,14.20
2022-11-18T19:17:09.593Z,14.10
2022-11-18T19:19:56.997Z,14.10
2022-11-18T19:22:24.933Z,14.10
2022-11-18T19:24:52.638Z,14.20
2022-11-18T19:27:20.320Z,14.10
2022-11-18T19:29:47.527Z,14.20
2022-11-18T19:32:14.910Z,14.20
2022-11-18T19:34:42.028Z,14.10
2022-11-18T19:37:09.053Z,14.10
2022-11-18T19:39:37.881Z,14.10
2022-11-18T19:42:05.181Z,14.10
2022-11-18T19:44:32.173Z,14.10
2022-11-18T19:46:59.184Z,14.10
2022-11-18T19:49:26.198Z,14.00
2022-11-18T19:51:53.327Z,14.10
2022-11-18T19:54:20.813Z,14.00
2022-11-18T19:56:47.798Z,14.00
2022-11-18T19:59:14.711Z,14.00
2022-11-18T20:01:41.952Z,14.10
2022-11-18T20:04:09.207Z,14.10
2022-11-18T20:06:36.880Z,14.00
2022-11-18T20:09:07.187Z,14.10
2022-11-18T20:11:34.276Z,14.00
2022-11-18T20:14:01.530Z,14.00
2022-11-18T20:16:28.495Z,14.00
2022-11-18T20:19:04.937Z,14.00
2022-11-18T20:21:33.963Z,14.00
2022-11-18T20:24:03.975Z,14.00
2022-11-18T20:26:36.544Z,14.00
2022-11-18T20:29:04.025Z,14.00
2022-11-18T20:31:33.190Z,14.00
2022-11-18T20:34:00.937Z,14.00
2022-11-18T20:36:36.790Z,14.00
2022-11-18T20:39:06.879Z,14.00
2022-11-18T20:41:33.894Z,13.90
2022-11-18T20:44:00.932Z,13.90
2022-11-18T20:46:28.368Z,13.90
2022-11-18T20:48:56.134Z,13.90
2022-11-18T20:51:25.132Z,13.90
2022-11-18T20:53:53.760Z,13.90
2022-11-18T20:56:25.530Z,13.90
2022-11-18T20:58:52.700Z,13.90
2022-11-18T21:01:25.498Z,13.90
2022-11-18T21:03:57.541Z,13.90
2022-11-18T21:06:28.281Z,13.90
2022-11-18T21:09:03.942Z,13.90
2022-11-18T21:11:34.834Z,13.80
2022-11-18T21:14:23.373Z,13.90
2022-11-18T21:17:02.690Z,13.90
2022-11-18T21:19:30.348Z,13.90
2022-11-18T21:21:57.496Z,13.90
2022-11-18T21:24:28.540Z,13.80
2022-11-18T21:26:56.727Z,13.80
2022-11-18T21:29:27.041Z,13.80
2022-11-18T21:31:54.413Z,13.80
2022-11-18T21:34:21.953Z,13.80
2022-11-18T21:36:53.235Z,13.80
2022-11-18T21:39:22.407Z,13.80
2022-11-18T21:41:55.187Z,13.80
2022-11-18T21:44:23.391Z,13.80
2022-11-18T21:46:50.601Z,13.80
2022-11-18T21:49:17.976Z,13.80
2022-11-18T21:51:45.502Z,13.80
2022-11-18T21:54:13.005Z,13.80
2022-11-18T21:56:39.960Z,13.80
2022-11-18T21:59:07.692Z,13.80
2022-11-18T22:01:35.232Z,13.80
2022-11-18T22:04:04.911Z,13.80
2022-11-18T22:06:34.193Z,13.80
2022-11-18T22:09:02.306Z,13.70
2022-11-18T22:11:29.360Z,13.70
2022-11-18T22:13:56.600Z,13.70
2022-11-18T22:16:25.123Z,13.70
2022-11-18T22:18:59.237Z,13.60
2022-11-18T22:21:29.920Z,13.60
2022-11-18T22:24:00.976Z,13.60
2022-11-18T22:26:28.824Z,13.50
2022-11-18T22:28:57.757Z,13.50
2022-11-18T22:31:26.860Z,13.50
2022-11-18T22:33:55.392Z,13.50
2022-11-18T22:36:24.328Z,13.40
2022-11-18T22:38:51.329Z,13.40
2022-11-18T22:41:39.276Z,13.40
2022-11-18T22:44:08.465Z,13.40
2022-11-18T22:46:37.201Z,13.40
2022-11-18T22:49:04.639Z,13.30
2022-11-18T22:51:31.888Z,13.30
2022-11-18T22:56:45.876Z,13.30
2022-11-18T22:59:13.058Z,13.20
2022-11-18T23:01:40.309Z,13.20
2022-11-18T23:04:07.775Z,13.20
2022-11-18T23:06:34.889Z,13.10
2022-11-18T23:09:02.693Z,13.10
2022-11-18T23:11:49.740Z,13.10
2022-11-18T23:14:16.836Z,13.10
2022-11-18T23:16:44.200Z,13.00
2022-11-18T23:19:17.316Z,13.00
2022-11-18T23:21:45.078Z,13.00
2022-11-18T23:24:17.446Z,13.10
2022-11-18T23:26:45.044Z,13.00
2022-11-18T23:29:13.640Z,13.00
2022-11-18T23:31:42.889Z,13.10
2022-11-18T23:34:12.304Z,13.10
2022-11-18T23:36:40.036Z,13.10
2022-11-18T23:39:07.713Z,13.10
2022-11-18T23:41:34.783Z,13.10
2022-11-18T23:44:02.028Z,13.10
2022-11-18T23:46:29.459Z,13.10
2022-11-18T23:48:56.433Z,13.00
2022-11-18T23:51:24.917Z,13.00
2022-11-18T23:53:54.177Z,13.00
2022-11-18T23:56:23.865Z,13.00
2022-11-18T23:58:52.211Z,12.90
